Analomink, Pennsylvania
Current Conditions -  °F | °C
As of 9:53 AM on Saturday 22 Nov 2014 (Local Time) from KMPO Reporting Station
Clear Clear  
Wind Chill: 17°   Ceiling: Unl
Heat Index: 28°   Visibility: 10mi
Dew Point:   Wind: 15mph
Humidity: 43%   Direction: 260°W
Pressure: 30.3"   Gusts: NA
Location:  41.05°N, 75.22°W
Report Text: KMPO 221453Z AUTO 26013KT 10SM CLR M02/M13 A3030 RMK AO2 SLP294 T10221133 58009
Loading
Personal Weather Stations






























Interactive Weather Map New forecast layout! Learn more

10-Day Weather Forecast

Advertisements
Track Severe Weather on mobile